Latest Weather Observations for Stawell

IDV60801

Issued at 8:02 pm EDT Saturday 16 December 2017 (issued every 30 minutes, with the page automatically refreshed every 10 minutes)

About weather observations | Map of weather stations | Latest weather observations for VIC | Other Formats
Station Details ID: 079105 Name: STAWELL AERODROME Lat: -37.07 Lon: 142.74 Height: 235.36 m
Data from the previous 72 hours. | See also: Recent months at Stawell
Date/Time
EDT
Temp
°C
App
Temp
°C
Dew
Point
°C
Rel
Hum
%
Delta-T
°C
Wind Press
QNH
hPa
Press
MSL
hPa
Rain since
9am
mm
Dir  Spd
km/h
Gust
km/h
Spd
kts
Gust
kts
16/08:00pm 25.0 20.6 7.2 32 9.4 SSE 20 28 11 15 1014.2 1013.6 0.0
16/07:30pm 25.6 21.3 7.2 31 9.8 SSE 19 26 10 14 1013.8 1013.2 0.0
16/07:00pm 26.4 22.8 8.4 32 9.8 S 17 26 9 14 1013.5 1012.9 0.0
16/06:30pm 26.5 23.5 7.5 30 10.2 SSE 13 20 7 11 1013.4 1012.8 0.0
16/06:00pm 26.6 23.3 8.1 31 10.1 SSW 15 24 8 13 1013.3 1012.6 0.0
16/05:30pm 26.4 22.6 7.4 30 10.2 S 17 24 9 13 1013.4 1012.8 0.0
16/05:00pm 26.7 23.6 7.2 29 10.4 SSW 13 20 7 11 1013.5 1012.9 0.0
16/04:30pm 26.6 22.8 7.6 30 10.2 SSW 17 24 9 13 1013.8 1013.2 0.0
16/04:00pm 26.0 23.0 7.6 31 9.9 SSW 13 30 7 16 1013.9 1013.3 0.0
16/03:30pm 26.3 22.5 7.4 30 10.1 SE 17 26 9 14 1014.1 1013.5 0.0
16/03:00pm 25.8 22.6 6.9 30 10.0 WSW 13 20 7 11 1014.4 1013.8 0.0
16/02:30pm 25.2 22.7 6.4 30 9.8 SW 9 17 5 9 1014.5 1013.9 0.0
16/02:00pm 26.2 23.6 6.3 28 10.5 W 9 15 5 8 1014.8 1014.2 0.0
16/01:30pm 24.5 20.8 6.3 31 9.5 SSW 15 20 8 11 1014.9 1014.3 0.0
16/01:00pm 23.8 20.8 6.1 32 9.1 SSW 11 20 6 11 1015.1 1014.5 0.0
16/12:30pm 22.9 19.7 5.3 32 8.9 SW 11 20 6 11 1015.3 1014.7 0.0
16/12:00pm 22.6 20.2 7.2 37 8.1 WNW 9 13 5 7 1015.3 1014.7 0.0
16/11:30am 21.5 19.6 7.7 41 7.2 NE 7 15 4 8 1015.5 1014.8 0.0
16/11:00am 21.0 17.7 6.5 39 7.4 S 13 22 7 12 1015.6 1014.9 0.0
16/10:30am 20.1 17.0 7.1 43 6.7 S 13 20 7 11 1015.3 1014.7 0.0
16/10:00am 19.4 16.4 7.5 46 6.1 SSW 13 20 7 11 1015.3 1014.7 0.0
16/09:30am 19.0 16.0 7.8 48 5.8 SW 13 19 7 10 1015.1 1014.5 0.0
16/09:00am 18.1 15.0 7.2 49 5.5 S 13 20 7 11 1015.0 1014.4 0.0
16/08:30am 17.4 14.4 7.5 52 5.0 SSW 13 19 7 10 1014.8 1014.2 0.0
16/08:00am 16.8 15.6 8.2 57 4.4 WSW 4 13 2 7 1014.6 1014.0 0.0
16/07:30am 14.7 13.8 9.1 69 2.9 NW 4 7 2 4 1014.2 1013.6 0.0
16/07:00am 12.7 12.5 9.0 78 1.9 CALM 0 7 0 4 1013.8 1013.2 0.0
16/06:30am 10.8 9.7 8.4 85 1.2 WSW 4 7 2 4 1013.5 1012.9 0.0
16/06:00am 10.1 8.4 7.5 84 1.3 WSW 6 9 3 5 1013.2 1012.5 0.0
16/05:30am 11.2 10.8 8.4 83 1.4 CALM 0 0 0 0 1012.8 1012.1 0.0
16/05:00am 11.6 11.3 8.5 81 1.6 CALM 0 0 0 0 1012.5 1011.8 0.0
16/04:30am 10.9 10.4 8.0 82 1.4 CALM 0 7 0 4 1012.2 1011.5 0.0
16/04:00am 11.8 10.3 8.3 79 1.7 WSW 6 7 3 4 1012.2 1011.5 0.0
16/03:30am 12.3 12.0 8.6 78 1.9 CALM 0 0 0 0 1012.1 1011.4 0.0
16/03:00am 13.4 12.3 8.3 71 2.6 ESE 4 7 2 4 1012.2 1011.5 0.0
16/02:30am 13.7 11.7 8.7 72 2.5 E 9 13 5 7 1012.3 1011.6 0.0
16/02:00am 13.9 12.2 8.5 70 2.7 ESE 7 9 4 5 1012.6 1011.9 0.0
16/01:30am 14.8 12.7 8.3 65 3.3 SSE 9 13 5 7 1012.8 1012.1 0.0
16/01:00am 15.1 12.6 8.3 64 3.5 S 11 19 6 10 1013.1 1012.4 0.0
16/12:30am 15.5 13.1 8.7 64 3.5 SSE 11 17 6 9 1013.1 1012.4 0.0
16/12:00am 15.5 12.9 9.4 67 3.2 S 13 20 7 11 1013.1 1012.4 0.0
 
Date/Time
EDT
Temp
°C
App
Temp
°C
Dew
Point
°C
Rel
Hum
%
Delta-T
°C
Wind Press
QNH
hPa
Press
MSL
hPa
Rain since
9am
mm
Dir  Spd
km/h
Gust
km/h
Spd
kts
Gust
kts
15/11:30pm 15.9 13.0 9.8 67 3.2 SSE 15 22 8 12 1013.2 1012.5 0.0
15/11:00pm 16.5 14.1 10.1 66 3.4 SSE 13 19 7 10 1013.3 1012.6 0.0
15/10:30pm 17.3 14.7 10.7 65 3.6 SSE 15 26 8 14 1012.9 1012.2 0.0
15/10:00pm 18.5 15.5 10.6 60 4.3 SSE 17 28 9 15 1012.5 1011.8 0.0
15/09:30pm 20.1 17.3 7.1 43 6.7 SW 11 24 6 13 1011.8 1011.1 0.0
15/09:00pm 22.0 19.3 3.6 30 9.0 WSW 7 9 4 5 1011.2 1010.5 0.0
15/08:30pm 23.6 20.4 3.0 26 10.0 WSW 9 13 5 7 1010.8 1010.2 0.0
15/08:00pm 25.2 21.6 3.2 24 10.9 WSW 11 17 6 9 1010.4 1009.8 0.0
15/07:30pm 26.1 22.5 2.7 22 11.5 WNW 11 17 6 9 1010.1 1009.5 0.0
15/07:00pm 26.4 22.8 3.0 22 11.6 SW 11 19 6 10 1009.8 1009.2 0.0
15/06:30pm 26.3 21.7 1.6 20 12.0 W 15 22 8 12 1009.5 1008.8 0.0
15/06:00pm 26.3 21.6 0.9 19 12.2 WNW 15 28 8 15 1009.4 1008.7 0.0
15/05:30pm 27.1 23.6 1.5 19 12.4 W 9 17 5 9 1009.6 1008.9 0.0
15/05:00pm 26.8 21.7 0.5 18 12.5 WNW 17 28 9 15 1009.6 1008.9 0.0
15/04:30pm 27.2 22.9 0.8 18 12.7 WNW 13 26 7 14 1009.8 1009.2 0.0
15/04:00pm 26.0 20.7 -0.9 17 12.4 NW 17 30 9 16 1010.0 1009.4 0.0
15/03:30pm 26.5 21.3 0.3 18 12.4 NW 17 28 9 15 1010.2 1009.6 0.0
15/03:00pm 25.1 19.9 -0.1 19 11.7 WNW 17 28 9 15 1010.5 1009.9 0.0
15/02:30pm 25.1 20.1 1.3 21 11.4 NW 17 32 9 17 1011.0 1010.3 0.0
15/02:00pm 24.2 18.6 1.2 22 10.9 NW 20 32 11 17 1011.3 1010.6 0.0
15/01:30pm 23.7 19.0 3.1 26 10.1 W 17 30 9 16 1011.5 1010.8 0.0
15/01:00pm 23.1 19.0 4.6 30 9.3 NW 15 22 8 12 1011.7 1011.0 0.0
15/12:30pm 21.9 18.5 4.0 31 8.8 WSW 11 20 6 11 1012.1 1011.4 0.0
15/12:00pm 21.3 16.4 2.1 28 9.0 WNW 17 24 9 13 1012.6 1011.9 0.0
15/11:30am 20.9 16.8 2.2 29 8.8 W 13 22 7 12 1012.7 1012.0 0.0
15/11:00am 20.5 16.4 6.1 39 7.3 NNW 17 24 9 13 1012.8 1012.1 0.0
15/10:30am 19.2 16.5 5.6 41 6.8 SE 9 13 5 7 1013.0 1012.3 0.0
15/10:00am 18.1 15.6 6.6 47 5.8 WNW 9 13 5 7 1013.1 1012.4 0.0
15/09:30am 17.4 15.8 8.0 54 4.8 SW 6 11 3 6 1013.3 1012.6 0.0
15/09:00am 17.1 14.9 8.0 55 4.7 ESE 9 15 5 8 1013.3 1012.6 0.0
15/08:30am 15.9 14.4 8.6 62 3.8 WSW 6 13 3 7 1013.3 1012.6 0.0
15/08:00am 14.3 12.4 9.1 71 2.7 SSW 9 13 5 7 1013.1 1012.4 0.0
15/07:30am 13.4 11.6 9.5 77 2.0 SW 9 11 5 6 1012.7 1012.0 0.0
15/07:00am 12.4 11.2 9.6 83 1.4 SSW 6 9 3 5 1012.5 1011.8 0.0
15/06:30am 10.8 9.4 9.4 91 0.7 SW 7 11 4 6 1012.5 1011.8 0.0
15/06:00am 10.2 8.5 8.5 89 0.8 SSW 7 9 4 5 1012.4 1011.7 0.0
15/05:30am 10.9 9.3 8.8 87 1.1 S 7 11 4 6 1012.4 1011.7 0.0
15/05:00am 12.3 10.5 9.5 83 1.4 S 9 13 5 7 1012.1 1011.4 0.0
15/04:30am 12.2 10.3 9.2 82 1.5 S 9 17 5 9 1012.0 1011.3 0.0
15/04:00am 12.7 11.3 9.5 81 1.6 SSE 7 13 4 7 1012.0 1011.3 0.0
15/03:30am 13.0 10.4 9.3 78 1.9 SSE 13 20 7 11 1012.0 1011.3 0.0
15/03:00am 13.3 10.0 9.4 77 2.0 SSE 17 32 9 17 1012.1 1011.4 0.0
15/02:30am 13.3 11.1 9.5 78 2.0 SE 11 17 6 9 1012.2 1011.5 0.0
15/02:00am 13.5 11.7 9.4 76 2.1 SE 9 15 5 8 1012.5 1011.8 0.0
15/01:30am 13.9 11.6 9.1 73 2.5 SE 11 17 6 9 1012.6 1011.9 0.0
15/01:00am 14.5 11.7 8.7 68 3.0 SSE 13 22 7 12 1012.7 1012.0 0.0
15/12:30am 14.9 11.0 8.6 66 3.2 S 19 28 10 15 1012.7 1012.0 0.0
15/12:00am 14.7 10.8 9.5 71 2.7 SSE 20 30 11 16 1012.8 1012.1 0.0
 
Date/Time
EDT
Temp
°C
App
Temp
°C
Dew
Point
°C
Rel
Hum
%
Delta-T
°C
Wind Press
QNH
hPa
Press
MSL
hPa
Rain since
9am
mm
Dir  Spd
km/h
Gust
km/h
Spd
kts
Gust
kts
14/11:30pm 15.3 11.1 9.7 69 2.9 S 22 39 12 21 1012.8 1012.1 0.0
14/11:00pm 16.1 12.5 10.4 69 3.0 S 20 35 11 19 1012.7 1012.0 0.0
14/10:30pm 17.2 13.5 10.1 63 3.8 SSE 20 30 11 16 1012.3 1011.6 0.0
14/10:00pm 18.1 12.8 10.0 59 4.4 S 28 39 15 21 1011.8 1011.1 0.0
14/09:30pm 19.4 14.5 8.4 49 5.8 S 24 37 13 20 1011.4 1010.7 0.0
14/09:00pm 20.4 15.7 7.7 44 6.6 S 22 32 12 17 1011.1 1010.4 0.0
14/08:30pm 21.5 17.4 7.7 41 7.2 S 19 30 10 16 1010.7 1010.1 0.0
14/08:00pm 22.8 19.1 7.8 38 8.0 SSW 17 24 9 13 1010.0 1009.4 0.0
14/07:30pm 23.9 19.8 7.9 36 8.5 S 19 26 10 14 1009.6 1008.9 0.0
14/07:00pm 23.9 18.9 7.9 36 8.6 S 24 39 13 21 1009.3 1008.6 0.0
14/06:30pm 25.5 21.3 8.1 33 9.4 S 20 33 11 18 1008.9 1008.2 0.0
14/06:00pm 25.9 21.9 6.5 29 10.2 WSW 17 24 9 13 1008.5 1007.8 0.0
14/05:30pm 25.9 22.5 7.5 31 9.9 WSW 15 20 8 11 1008.4 1007.7 0.0
14/05:00pm 26.5 22.6 7.0 29 10.4 WSW 17 32 9 17 1008.5 1007.8 0.0
14/04:30pm 26.6 22.6 6.6 28 10.6 WNW 17 32 9 17 1008.4 1007.7 0.0
14/04:00pm 26.3 22.9 7.8 31 10.0 WSW 15 32 8 17 1008.4 1007.7 0.0
14/03:30pm 26.1 22.1 8.1 32 9.8 SW 19 28 10 15 1008.4 1007.7 0.0
14/03:00pm 25.9 22.8 8.8 34 9.4 SW 15 24 8 13 1008.4 1007.7 0.0
14/02:30pm 25.2 22.5 10.3 39 8.4 SW 15 28 8 15 1008.3 1007.6 0.0
14/02:00pm 24.4 21.3 10.3 41 7.9 WSW 17 30 9 16 1008.5 1007.8 0.0
14/01:30pm 24.7 21.6 11.6 44 7.5 SSW 19 28 10 15 1008.7 1008.0 0.0
14/01:00pm 24.1 21.7 11.4 45 7.2 WSW 15 24 8 13 1009.0 1008.3 0.0
14/12:30pm 23.1 20.6 12.4 51 6.2 WSW 17 32 9 17 1009.1 1008.4 0.0
14/12:00pm 23.8 21.3 13.4 52 6.1 SW 19 30 10 16 1008.9 1008.2 0.0
14/11:30am 23.1 20.9 13.3 54 5.7 SW 17 28 9 15 1008.3 1007.6 0.0
14/11:00am 23.0 21.5 13.2 54 5.7 SW 13 24 7 13 1008.0 1007.3 0.0
14/10:30am 23.3 21.9 13.5 54 5.8 SSW 13 24 7 13 1007.8 1007.1 0.0
14/10:00am 22.7 21.6 13.2 55 5.5 SSW 11 17 6 9 1007.7 1007.0 0.0
14/09:30am 21.9 21.1 13.0 57 5.1 WSW 9 15 5 8 1007.6 1006.9 0.0
14/09:00am 21.5 21.2 13.2 59 4.8 SSE 7 9 4 5 1007.6 1006.9 0.0
14/08:30am 20.2 19.5 13.2 64 4.0 WSW 9 13 5 7 1007.7 1007.0 0.0
14/08:00am 19.9 19.6 13.4 66 3.8 ESE 7 13 4 7 1006.7 1006.0 0.0
14/07:30am 19.2 18.9 13.2 68 3.4 SE 7 13 4 7 1006.2 1005.6 0.0
14/07:00am 18.7 17.6 13.1 70 3.2 SSE 11 20 6 11 1006.0 1005.4 0.0
14/06:30am 18.1 17.0 11.9 67 3.4 SSW 9 13 5 7 1005.4 1004.7 0.0
14/06:00am 17.3 17.3 9.7 61 4.1 CALM 0 6 0 3 1004.9 1004.2 0.0
14/05:30am 18.9 18.2 9.9 56 4.8 ESE 4 9 2 5 1004.7 1004.0 0.0
14/05:00am 20.1 20.3 10.5 54 5.3 CALM 0 0 0 0 1004.4 1003.7 0.0
14/04:30am 20.3 19.2 9.8 51 5.7 WSW 6 7 3 4 1003.7 1003.0 0.0
14/04:00am 21.2 19.1 9.8 48 6.2 WSW 11 17 6 9 1003.6 1002.9 0.0
14/03:30am 21.4 20.1 9.3 46 6.5 SW 6 9 3 5 1003.7 1003.0 0.0
14/03:00am 22.4 20.9 9.2 43 7.2 NNE 7 11 4 6 1003.9 1003.2 0.0
14/02:30am 22.5 21.0 9.0 42 7.3 W 7 11 4 6 1003.8 1003.1 0.0
14/02:00am 23.4 21.4 8.7 39 8.0 ESE 9 11 5 6 1004.0 1003.3 0.0
14/01:30am 23.6 21.2 8.5 38 8.1 E 11 15 6 8 1003.5 1002.8 0.0
14/01:00am 24.3 22.1 7.9 35 8.8 ESE 9 13 5 7 1004.5 1003.8 0.0
14/12:30am 25.1 23.2 7.7 33 9.3 ESE 7 15 4 8 1004.7 1004.0 0.0
14/12:00am 25.7 22.6 7.3 31 9.9 S 13 19 7 10 1005.4 1004.7 0.0
 
Date/Time
EDT
Temp
°C
App
Temp
°C
Dew
Point
°C
Rel
Hum
%
Delta-T
°C
Wind Press
QNH
hPa
Press
MSL
hPa
Rain since
9am
mm
Dir  Spd
km/h
Gust
km/h
Spd
kts
Gust
kts
13/11:30pm 25.9 22.0 7.0 30 10.0 SSW 17 22 9 12 1005.9 1005.2 0.0
13/11:00pm 26.5 22.8 6.5 28 10.6 SSE 15 20 8 11 1005.2 1004.5 0.0
13/10:30pm 26.7 23.0 6.2 27 10.8 E 15 20 8 11 1005.5 1004.8 0.0
13/10:00pm 27.6 23.7 5.2 24 11.7 ESE 15 20 8 11 1004.7 1004.0 0.0
13/09:30pm 28.9 26.0 4.4 21 12.7 SSW 9 19 5 10 1004.8 1004.1 0.0
13/09:00pm 29.4 25.3 4.1 20 13.1 SW 15 26 8 14 1004.2 1003.5 0.0
13/08:30pm 29.6 23.6 3.6 19 13.3 SSW 24 39 13 21 1003.8 1003.1 0.0

Other Formats:

Comma delimited format used in spreadsheet applications
http://www.bom.gov.au/fwo/IDV60801/IDV60801.94836.axf

JavaScript Object Notation format (JSON) in row-major order
http://www.bom.gov.au/fwo/IDV60801/IDV60801.94836.json